createdAt,value
2022-07-26T00:00:54.385Z,1.92
2022-07-26T00:05:56.458Z,2.20
2022-07-26T00:10:58.958Z,1.75
2022-07-26T00:16:02.918Z,2.40
2022-07-26T00:21:05.587Z,2.30
2022-07-26T00:26:09.057Z,2.67
2022-07-26T00:31:12.840Z,2.38
2022-07-26T00:36:14.935Z,2.50
2022-07-26T00:41:16.781Z,2.83
2022-07-26T00:46:19.207Z,2.85
2022-07-26T00:51:21.560Z,2.90
2022-07-26T00:56:23.582Z,2.80
2022-07-26T01:01:25.812Z,3.15
2022-07-26T01:06:28.120Z,2.90
2022-07-26T01:11:30.114Z,3.13
2022-07-26T01:16:32.358Z,2.95
2022-07-26T01:21:34.396Z,3.17
2022-07-26T01:26:36.357Z,2.90
2022-07-26T01:31:38.550Z,2.92
2022-07-26T01:36:40.594Z,3.13
2022-07-26T01:41:42.622Z,2.80
2022-07-26T01:46:44.437Z,3.05
2022-07-26T01:51:46.377Z,3.53
2022-07-26T01:56:48.346Z,3.35
2022-07-26T02:01:50.515Z,3.40
2022-07-26T02:06:52.663Z,3.75
2022-07-26T02:11:56.115Z,3.38
2022-07-26T02:17:00.146Z,2.90
2022-07-26T02:22:02.471Z,3.00
2022-07-26T02:27:05.466Z,3.20
2022-07-26T02:32:07.608Z,3.47
2022-07-26T02:37:09.839Z,3.47
2022-07-26T02:42:11.933Z,3.80
2022-07-26T02:47:13.952Z,3.78
2022-07-26T02:52:15.877Z,3.33
2022-07-26T02:57:17.796Z,3.35
2022-07-26T03:02:19.866Z,3.80
2022-07-26T03:07:21.872Z,4.25
2022-07-26T03:12:24.322Z,3.60
2022-07-26T03:17:26.483Z,3.70
2022-07-26T03:22:28.574Z,3.80
2022-07-26T03:27:30.621Z,3.65
2022-07-26T03:32:32.718Z,4.60
2022-07-26T03:37:45.031Z,4.00
2022-07-26T03:42:48.800Z,4.03
2022-07-26T03:47:50.803Z,4.93
2022-07-26T03:52:52.755Z,4.30
2022-07-26T03:57:54.772Z,4.05
2022-07-26T04:02:56.741Z,4.43
2022-07-26T04:07:58.641Z,4.35
2022-07-26T04:13:01.174Z,4.18
2022-07-26T04:18:03.408Z,4.32
2022-07-26T04:23:05.420Z,3.85
2022-07-26T04:28:14.424Z,4.93
2022-07-26T04:33:16.531Z,3.60
2022-07-26T04:38:18.638Z,4.00
2022-07-26T04:43:20.778Z,4.15
2022-07-26T04:48:22.980Z,5.32
2022-07-26T04:53:24.890Z,5.25
2022-07-26T04:58:27.126Z,4.45
2022-07-26T05:03:29.209Z,4.70
2022-07-26T05:08:31.292Z,4.10
2022-07-26T05:13:33.210Z,5.18
2022-07-26T05:18:48.923Z,4.47
2022-07-26T05:23:51.353Z,4.30
2022-07-26T05:28:54.297Z,4.40
2022-07-26T05:33:56.345Z,4.90
2022-07-26T05:38:58.391Z,4.55
2022-07-26T05:44:00.464Z,4.85
2022-07-26T05:49:02.382Z,5.07
2022-07-26T05:54:04.779Z,4.68
2022-07-26T05:59:07.772Z,3.88
2022-07-26T06:04:10.681Z,4.10
2022-07-26T06:09:12.910Z,4.28
2022-07-26T06:14:15.073Z,3.20
2022-07-26T06:19:17.428Z,3.13
2022-07-26T06:24:19.540Z,3.30
2022-07-26T06:29:21.869Z,3.00
2022-07-26T06:34:24.366Z,2.47
2022-07-26T06:39:26.487Z,2.85
2022-07-26T06:44:28.568Z,3.20
2022-07-26T06:49:30.769Z,2.40
2022-07-26T06:54:32.774Z,2.28
2022-07-26T06:59:35.175Z,3.00
2022-07-26T07:04:37.086Z,3.03
2022-07-26T07:09:39.205Z,2.45
2022-07-26T07:14:41.860Z,2.35
2022-07-26T07:19:43.670Z,3.05
2022-07-26T07:24:46.609Z,2.90
2022-07-26T07:29:48.815Z,2.88
2022-07-26T07:34:50.871Z,2.80
2022-07-26T07:39:52.903Z,2.63
2022-07-26T07:44:55.879Z,2.80
2022-07-26T07:49:58.510Z,2.92
2022-07-26T07:55:28.748Z,2.50
2022-07-26T08:00:33.044Z,2.35
2022-07-26T08:05:35.425Z,2.70
2022-07-26T08:10:51.873Z,2.30
2022-07-26T08:15:55.713Z,2.17
2022-07-26T08:20:58.026Z,2.15
2022-07-26T08:26:04.765Z,2.63
2022-07-26T08:31:08.830Z,1.92
2022-07-26T08:36:12.185Z,1.85
2022-07-26T08:41:14.192Z,2.10
2022-07-26T08:46:16.393Z,2.47
2022-07-26T08:51:22.688Z,2.22
2022-07-26T08:56:24.723Z,1.75
2022-07-26T09:01:27.227Z,2.30
2022-07-26T09:06:29.285Z,2.13
2022-07-26T09:11:33.081Z,2.22
2022-07-26T09:16:39.232Z,2.05
2022-07-26T09:21:42.310Z,1.85
2022-07-26T09:26:56.242Z,1.80
2022-07-26T09:32:18.871Z,1.77
2022-07-26T09:37:43.669Z,1.55
2022-07-26T09:43:03.918Z,1.52
2022-07-26T09:48:06.223Z,1.50
2022-07-26T09:53:10.791Z,1.42
2022-07-26T09:58:14.388Z,1.67
2022-07-26T10:03:16.760Z,1.77
2022-07-26T10:08:19.426Z,1.73
2022-07-26T10:13:22.685Z,1.30
2022-07-26T10:18:38.145Z,1.65
2022-07-26T10:23:46.241Z,1.70
2022-07-26T10:28:48.301Z,1.50
2022-07-26T10:33:51.849Z,1.30
2022-07-26T10:39:14.882Z,1.55
2022-07-26T10:44:20.182Z,1.25
2022-07-26T10:49:50.838Z,1.30
2022-07-26T10:54:56.548Z,1.58
2022-07-26T11:00:00.055Z,1.45
2022-07-26T11:05:05.082Z,1.30
2022-07-26T11:10:07.162Z,1.40
2022-07-26T11:15:19.213Z,1.50
2022-07-26T11:20:29.806Z,1.42
2022-07-26T11:25:32.189Z,1.90
2022-07-26T11:30:34.413Z,0.82
2022-07-26T11:35:36.538Z,0.73
2022-07-26T11:40:46.509Z,0.95
2022-07-26T11:45:52.596Z,0.80
2022-07-26T11:51:15.446Z,1.00
2022-07-26T11:56:23.311Z,0.57
2022-07-26T12:01:26.735Z,0.60
2022-07-26T12:06:29.030Z,0.52
2022-07-26T12:11:41.664Z,0.50
2022-07-26T12:16:47.532Z,0.55
2022-07-26T12:21:52.447Z,0.98
2022-07-26T12:27:21.741Z,0.60
2022-07-26T12:32:31.234Z,0.63
2022-07-26T12:37:40.531Z,1.00
2022-07-26T12:43:42.275Z,0.80
2022-07-26T12:48:52.678Z,0.73
2022-07-26T12:53:56.606Z,0.50
2022-07-26T12:59:02.141Z,0.90
2022-07-26T13:04:04.550Z,0.80
2022-07-26T13:09:06.578Z,0.73
2022-07-26T13:14:09.061Z,0.80
2022-07-26T13:19:11.776Z,0.98
2022-07-26T13:24:14.251Z,1.10
2022-07-26T13:29:19.406Z,0.60
2022-07-26T13:34:23.034Z,0.65
2022-07-26T13:39:26.053Z,0.90
2022-07-26T13:44:34.041Z,0.80
2022-07-26T13:49:35.948Z,0.90
2022-07-26T13:54:37.992Z,0.77
2022-07-26T13:59:40.027Z,1.63
2022-07-26T14:04:42.557Z,1.50
2022-07-26T14:09:44.486Z,1.15
2022-07-26T14:14:47.460Z,1.08
2022-07-26T14:19:50.844Z,1.15
2022-07-26T14:24:53.109Z,1.15
2022-07-26T14:29:55.004Z,1.63
2022-07-26T14:34:57.041Z,0.90
2022-07-26T14:39:59.100Z,1.45
2022-07-26T14:45:01.238Z,1.40
2022-07-26T14:50:06.872Z,1.48
2022-07-26T14:55:09.914Z,1.30
2022-07-26T15:00:17.258Z,1.33
2022-07-26T15:05:19.229Z,1.20
2022-07-26T15:10:38.940Z,1.30
2022-07-26T15:15:41.393Z,1.58
2022-07-26T15:20:43.693Z,1.85
2022-07-26T15:25:48.759Z,1.92
2022-07-26T15:30:51.230Z,1.25
2022-07-26T15:35:55.456Z,2.03
2022-07-26T15:40:57.463Z,2.20
2022-07-26T15:45:59.678Z,1.90
2022-07-26T15:51:01.931Z,2.20
2022-07-26T15:56:04.412Z,1.65
2022-07-26T16:01:06.740Z,1.60
2022-07-26T16:06:08.727Z,1.35
2022-07-26T16:11:10.777Z,1.10
2022-07-26T16:16:13.251Z,1.42
2022-07-26T16:21:15.198Z,1.42
2022-07-26T16:26:17.889Z,1.80
2022-07-26T16:31:20.292Z,1.77
2022-07-26T16:36:22.485Z,1.23
2022-07-26T16:41:24.335Z,1.20
2022-07-26T16:46:27.765Z,1.85
2022-07-26T16:51:30.491Z,1.52
2022-07-26T16:56:32.739Z,2.00
2022-07-26T17:01:34.784Z,2.17
2022-07-26T17:06:40.544Z,1.92
2022-07-26T17:11:43.138Z,2.08
2022-07-26T17:16:45.148Z,1.88
2022-07-26T17:21:47.281Z,1.83
2022-07-26T17:26:49.354Z,1.83
2022-07-26T17:31:51.295Z,1.58
2022-07-26T17:37:01.586Z,1.40
2022-07-26T17:42:06.968Z,1.75
2022-07-26T17:47:27.649Z,1.50
2022-07-26T17:52:30.822Z,1.58
2022-07-26T17:57:33.027Z,2.28
2022-07-26T18:02:34.958Z,1.67
2022-07-26T18:07:37.375Z,1.98
2022-07-26T18:12:39.425Z,2.10
2022-07-26T18:17:41.557Z,1.88
2022-07-26T18:22:45.740Z,1.70
2022-07-26T18:27:53.818Z,1.65
2022-07-26T18:32:56.385Z,2.58
2022-07-26T18:37:58.595Z,1.40
2022-07-26T18:43:01.089Z,1.75
2022-07-26T18:48:03.373Z,1.42
2022-07-26T18:53:05.909Z,2.13
2022-07-26T18:58:08.562Z,2.10
2022-07-26T19:03:10.767Z,1.48
2022-07-26T19:08:13.043Z,1.70
2022-07-26T19:13:14.941Z,2.13
2022-07-26T19:18:16.970Z,1.73
2022-07-26T19:23:18.996Z,2.03
2022-07-26T19:28:20.967Z,1.52
2022-07-26T19:33:23.038Z,1.58
2022-07-26T19:38:25.159Z,1.77
2022-07-26T19:43:28.742Z,1.33
2022-07-26T19:48:30.745Z,1.20
2022-07-26T19:53:32.638Z,1.58
2022-07-26T19:58:34.563Z,1.20
2022-07-26T20:03:39.732Z,1.63
2022-07-26T20:08:42.117Z,1.45
2022-07-26T20:13:44.861Z,1.42
2022-07-26T20:18:46.945Z,1.42
2022-07-26T20:23:49.109Z,1.55
2022-07-26T20:28:51.227Z,1.67
2022-07-26T20:33:53.913Z,1.60
2022-07-26T20:38:55.791Z,1.48
2022-07-26T20:43:57.904Z,1.38
2022-07-26T20:49:01.348Z,1.25
2022-07-26T20:54:03.903Z,1.33
2022-07-26T20:59:06.521Z,1.48
2022-07-26T21:04:08.721Z,1.38
2022-07-26T21:09:10.917Z,1.27
2022-07-26T21:14:13.414Z,1.10
2022-07-26T21:19:15.595Z,1.48
2022-07-26T21:24:17.940Z,1.27
2022-07-26T21:29:19.938Z,1.63
2022-07-26T21:34:22.447Z,1.15
2022-07-26T21:39:24.593Z,1.10
2022-07-26T21:44:28.155Z,1.13
2022-07-26T21:49:30.278Z,1.27
2022-07-26T21:54:33.242Z,1.20
2022-07-26T21:59:35.808Z,1.40
2022-07-26T22:04:38.017Z,1.83
2022-07-26T22:09:40.270Z,1.50
2022-07-26T22:14:42.144Z,1.20
2022-07-26T22:19:44.075Z,1.53
2022-07-26T22:24:46.270Z,1.73
2022-07-26T22:29:48.173Z,1.10
2022-07-26T22:34:51.206Z,1.10
2022-07-26T22:39:53.125Z,1.00
2022-07-26T22:44:54.961Z,1.30
2022-07-26T22:49:57.033Z,1.20
2022-07-26T22:54:58.897Z,1.10
2022-07-26T23:00:01.197Z,1.30
2022-07-26T23:05:03.905Z,1.13
2022-07-26T23:10:10.017Z,1.37
2022-07-26T23:15:12.510Z,1.30
2022-07-26T23:20:14.530Z,1.40
2022-07-26T23:25:16.547Z,1.40
2022-07-26T23:30:18.665Z,1.10
2022-07-26T23:35:21.361Z,1.23
2022-07-26T23:40:24.879Z,1.20
2022-07-26T23:45:26.892Z,1.50
2022-07-26T23:50:28.957Z,1.47
2022-07-26T23:55:35.777Z,1.43
